Time;durP1;ratioP1;P1;durP2;ratioP2;P2;SDS_P1;SDS_P2;PMS_P1;PMS_P2;Temp;Humidity;BMP_temperature;BMP_pressure;BME280_temperature;BME280_humidity;BME280_pressure;Samples;Min_cycle;Max_cycle;Signal;HPM_P1;HPM_P2
2022/06/26 00:00:41;;;;;;;6.88;5.25;;;21.80;73.10;;;;;;5000189;28;20038;-81
2022/06/26 00:03:07;;;;;;;8.93;5.30;;;21.80;73.30;;;;;;5021328;28;20022;-80
2022/06/26 00:05:32;;;;;;;7.00;4.93;;;21.80;72.60;;;;;;4999980;28;20033;-81
2022/06/26 00:07:58;;;;;;;9.30;6.18;;;21.70;70.80;;;;;;4990524;28;20036;-81
2022/06/26 00:10:23;;;;;;;5.18;4.60;;;21.70;71.40;;;;;;4989766;28;20081;-81
2022/06/26 00:12:49;;;;;;;5.68;4.60;;;21.50;69.80;;;;;;5000785;28;20112;-81
2022/06/26 00:15:15;;;;;;;6.95;4.60;;;21.60;72.30;;;;;;5005962;28;20389;-80
2022/06/26 00:17:40;;;;;;;4.47;3.97;;;21.60;72.80;;;;;;4993935;28;20054;-80
2022/06/26 00:20:06;;;;;;;6.82;3.42;;;21.30;70.60;;;;;;5041387;28;20393;-81
2022/06/26 00:22:33;;;;;;;6.45;5.03;;;21.60;73.40;;;;;;4988562;28;20034;-80
2022/06/26 00:24:58;;;;;;;4.68;3.83;;;21.70;73.20;;;;;;4974096;28;20029;-80
2022/06/26 00:27:24;;;;;;;4.85;4.30;;;21.70;74.40;;;;;;5003829;28;20048;-81
2022/06/26 00:29:50;;;;;;;4.22;3.83;;;21.60;74.50;;;;;;5037170;28;20045;-81
2022/06/26 00:32:15;;;;;;;6.82;4.72;;;21.60;74.50;;;;;;4999580;28;20124;-80
2022/06/26 00:34:41;;;;;;;4.68;4.18;;;21.40;75.60;;;;;;5003656;28;20042;-80
2022/06/26 00:37:06;;;;;;;6.75;4.97;;;21.50;75.10;;;;;;5023820;28;20119;-81
2022/06/26 00:39:32;;;;;;;7.28;6.03;;;21.30;73.50;;;;;;4988348;28;20397;-81
2022/06/26 00:41:58;;;;;;;8.60;7.78;;;20.90;71.50;;;;;;4973805;28;20064;-80
2022/06/26 00:44:24;;;;;;;10.55;7.78;;;20.80;71.60;;;;;;4971116;28;20022;-81
2022/06/26 00:46:50;;;;;;;9.23;6.70;;;20.60;70.90;;;;;;5001483;28;20565;-81
2022/06/26 00:49:16;;;;;;;9.52;7.93;;;20.50;72.00;;;;;;4986731;28;20022;-81
2022/06/26 00:51:44;;;;;;;5.85;3.88;;;20.50;71.70;;;;;;5022550;28;20022;-81
2022/06/26 00:54:10;;;;;;;7.40;6.70;;;20.50;74.20;;;;;;5002026;28;20026;-80
2022/06/26 00:56:36;;;;;;;8.52;7.10;;;20.50;72.40;;;;;;5002623;28;20050;-80
2022/06/26 00:59:02;;;;;;;9.60;6.57;;;20.40;72.80;;;;;;4987977;28;20030;-80
2022/06/26 01:01:27;;;;;;;7.38;3.78;;;20.40;71.60;;;;;;5003375;28;20037;-80
2022/06/26 01:03:53;;;;;;;5.07;3.97;;;20.20;70.60;;;;;;4987577;28;20494;-80
2022/06/26 01:06:19;;;;;;;6.75;4.00;;;20.40;73.90;;;;;;4983316;28;20030;-80
2022/06/26 01:08:44;;;;;;;4.65;2.95;;;20.40;74.70;;;;;;4992328;28;20022;-80
2022/06/26 01:11:20;;;;;;;3.70;3.17;;;20.30;73.60;;;;;;5022153;28;20474;-80
2022/06/26 01:13:47;;;;;;;6.22;3.63;;;20.30;72.50;;;;;;5022142;28;20053;-80
2022/06/26 01:16:13;;;;;;;3.47;3.17;;;20.10;71.90;;;;;;5008514;28;20099;-80
2022/06/26 01:18:39;;;;;;;5.18;3.85;;;20.10;74.00;;;;;;5021014;28;20045;-80
2022/06/26 01:21:05;;;;;;;4.45;4.03;;;20.20;75.00;;;;;;5027132;28;20048;-79
2022/06/26 01:23:31;;;;;;;3.75;2.95;;;20.30;75.30;;;;;;4998190;28;20071;-80
2022/06/26 01:25:56;;;;;;;3.60;3.28;;;20.10;74.50;;;;;;5011781;28;20425;-80
2022/06/26 01:28:22;;;;;;;8.25;4.88;;;20.10;75.40;;;;;;5023209;28;20510;-80
2022/06/26 01:30:48;;;;;;;6.18;4.43;;;20.10;75.60;;;;;;4992300;28;20441;-80
2022/06/26 01:33:13;;;;;;;5.97;3.80;;;20.00;76.00;;;;;;5028996;28;20168;-80
2022/06/26 01:35:39;;;;;;;5.28;3.70;;;19.90;74.90;;;;;;4993635;28;20137;-79
2022/06/26 01:38:11;;;;;;;3.30;2.90;;;19.90;75.90;;;;;;5011109;28;20037;-79
2022/06/26 01:40:37;;;;;;;4.57;3.60;;;20.40;75.90;;;;;;5015452;28;20053;-79
2022/06/26 01:43:02;;;;;;;5.65;4.50;;;20.60;76.60;;;;;;5009695;28;20358;-79
2022/06/26 01:45:28;;;;;;;5.47;3.60;;;20.30;75.80;;;;;;4992431;28;20030;-79
2022/06/26 01:47:56;;;;;;;3.63;3.20;;;19.90;76.00;;;;;;4991502;28;20029;-79
2022/06/26 01:50:22;;;;;;;7.60;5.90;;;19.80;77.60;;;;;;4996413;28;20033;-79
2022/06/26 01:52:47;;;;;;;5.07;3.67;;;19.80;77.30;;;;;;5007341;28;20038;-79
2022/06/26 01:55:13;;;;;;;4.43;3.70;;;19.60;76.30;;;;;;4993221;28;20030;-79
2022/06/26 01:57:39;;;;;;;3.22;2.92;;;19.40;76.30;;;;;;4997430;28;20567;-79
2022/06/26 02:00:06;;;;;;;7.88;4.70;;;19.60;77.90;;;;;;5002079;28;20053;-80
2022/06/26 02:02:31;;;;;;;3.63;3.30;;;19.60;77.60;;;;;;4984854;28;20038;-79
2022/06/26 02:04:58;;;;;;;5.57;4.40;;;19.40;77.90;;;;;;5006077;28;20040;-79
2022/06/26 02:07:24;;;;;;;5.72;4.30;;;19.30;77.50;;;;;;4987524;28;20094;-79
2022/06/26 02:15:18;;;;;;;4.75;4.35;;;19.70;82.80;;;;;;5015847;28;20141;-78
2022/06/26 02:17:44;;;;;;;3.90;3.50;;;19.80;84.20;;;;;;5008500;28;20109;-80
2022/06/26 02:20:10;;;;;;;5.78;5.20;;;19.70;85.10;;;;;;5003204;28;20034;-79
2022/06/26 02:22:36;;;;;;;6.80;4.85;;;19.50;89.70;;;;;;5025715;28;20030;-79
2022/06/26 02:25:01;;;;;;;3.70;3.40;;;19.50;88.70;;;;;;5009240;28;20105;-79
2022/06/26 02:27:27;;;;;;;4.88;3.72;;;19.40;90.30;;;;;;5009743;28;20404;-79
2022/06/26 02:29:53;;;;;;;4.03;3.22;;;19.50;90.50;;;;;;5007208;28;20030;-79
2022/06/26 02:32:18;;;;;;;9.63;2.92;;;19.70;90.60;;;;;;4984164;28;20026;-79
2022/06/26 02:34:44;;;;;;;5.38;3.40;;;19.70;91.10;;;;;;5002995;28;20549;-79
2022/06/26 02:37:09;;;;;;;6.55;4.25;;;19.80;91.80;;;;;;5022727;28;20033;-80
2022/06/26 02:39:35;;;;;;;5.38;3.85;;;19.70;92.70;;;;;;5004781;28;20034;-79
2022/06/26 02:42:00;;;;;;;5.60;3.80;;;19.70;92.10;;;;;;4998184;28;20032;-79
2022/06/26 02:44:26;;;;;;;5.95;3.83;;;19.60;92.90;;;;;;5007868;28;20038;-79
2022/06/26 02:46:52;;;;;;;6.57;5.20;;;19.40;93.70;;;;;;4995270;28;20099;-79
2022/06/26 02:49:17;;;;;;;4.20;3.80;;;19.20;95.40;;;;;;5017454;28;20033;-79
2022/06/26 02:51:43;;;;;;;7.13;6.03;;;19.30;95.00;;;;;;5011882;28;20026;-79
2022/06/26 02:54:08;;;;;;;5.13;3.78;;;19.20;97.50;;;;;;4977824;28;20633;-79
2022/06/26 02:56:34;;;;;;;4.72;4.18;;;19.20;95.70;;;;;;5009068;28;20518;-78
2022/06/26 02:59:00;;;;;;;6.68;6.00;;;19.10;96.50;;;;;;4996834;28;20030;-78
2022/06/26 03:01:25;;;;;;;5.28;4.47;;;19.00;95.90;;;;;;4992371;28;20136;-79
2022/06/26 03:03:51;;;;;;;6.78;6.15;;;18.90;96.00;;;;;;5017489;28;20113;-79
2022/06/26 03:06:16;;;;;;;7.55;4.57;;;18.80;96.50;;;;;;5002460;28;20490;-79
2022/06/26 03:08:42;;;;;;;5.03;3.33;;;18.80;96.80;;;;;;4999898;28;20080;-79
2022/06/26 03:11:08;;;;;;;6.85;6.15;;;18.60;96.40;;;;;;5003808;28;20045;-79
2022/06/26 03:13:33;;;;;;;7.30;6.57;;;18.60;97.30;;;;;;5006545;28;20034;-78
2022/06/26 03:15:59;;;;;;;8.48;7.55;;;18.40;96.70;;;;;;5018361;28;20047;-79
2022/06/26 03:18:24;;;;;;;7.28;5.68;;;18.20;96.20;;;;;;5006361;28;20088;-78
2022/06/26 03:20:50;;;;;;;7.43;6.05;;;18.20;97.40;;;;;;5020210;28;20040;-78
2022/06/26 03:23:15;;;;;;;9.30;7.35;;;18.30;97.00;;;;;;4972112;28;20042;-79
2022/06/26 03:25:41;;;;;;;6.70;4.97;;;18.10;95.90;;;;;;5008808;28;20037;-79
2022/06/26 03:28:07;;;;;;;8.77;5.82;;;18.30;97.10;;;;;;4990968;28;20073;-80
2022/06/26 03:30:32;;;;;;;4.75;4.38;;;18.40;96.50;;;;;;5017076;28;20034;-80
2022/06/26 03:32:58;;;;;;;4.88;4.03;;;18.40;96.40;;;;;;5011154;28;20461;-80
2022/06/26 03:35:23;;;;;;;6.43;5.70;;;18.30;96.00;;;;;;4991319;28;20517;-79
2022/06/26 03:37:49;;;;;;;7.22;6.53;;;18.40;96.70;;;;;;4993234;28;20396;-80
2022/06/26 03:40:15;;;;;;;5.38;3.97;;;18.40;97.00;;;;;;5012736;28;20034;-79
2022/06/26 03:42:40;;;;;;;7.05;5.40;;;18.30;96.70;;;;;;4991725;28;20034;-79
2022/06/26 03:45:07;;;;;;;7.97;7.03;;;18.30;98.00;;;;;;5015472;28;20112;-80
2022/06/26 03:47:33;;;;;;;4.03;3.72;;;18.40;99.50;;;;;;5006842;28;20030;-80
2022/06/26 03:49:59;;;;;;;8.13;6.30;;;18.50;98.20;;;;;;5010173;28;20128;-80
2022/06/26 03:52:25;;;;;;;8.60;6.97;;;18.30;97.50;;;;;;5025759;28;20117;-79
2022/06/26 03:54:51;;;;;;;4.88;3.92;;;18.50;99.60;;;;;;5008345;28;20039;-79
2022/06/26 03:57:16;;;;;;;7.53;5.20;;;18.50;98.30;;;;;;5000948;28;20125;-80
2022/06/26 03:59:43;;;;;;;5.50;5.00;;;18.70;98.80;;;;;;5012922;28;20101;-79
2022/06/26 04:02:09;;;;;;;6.03;5.40;;;18.70;98.70;;;;;;5034880;28;20565;-80
2022/06/26 04:04:34;;;;;;;8.00;4.80;;;18.80;98.70;;;;;;5024826;28;20042;-80
2022/06/26 04:07:00;;;;;;;8.00;6.45;;;18.90;98.50;;;;;;4995837;28;20421;-79
2022/06/26 04:09:26;;;;;;;6.55;5.47;;;18.80;98.60;;;;;;5001584;28;20116;-80
2022/06/26 04:11:51;;;;;;;5.18;4.40;;;18.70;98.20;;;;;;5012785;28;20570;-80
2022/06/26 04:14:17;;;;;;;5.60;4.05;;;18.90;98.40;;;;;;5007840;28;20053;-79
2022/06/26 04:16:42;;;;;;;5.28;4.28;;;18.90;99.00;;;;;;5006218;28;20030;-79
2022/06/26 04:19:08;;;;;;;9.70;7.47;;;18.80;99.50;;;;;;4992779;28;20089;-79
2022/06/26 04:21:34;;;;;;;7.10;5.10;;;18.90;99.90;;;;;;4994385;28;20049;-80
2022/06/26 04:23:59;;;;;;;5.93;5.10;;;19.00;99.70;;;;;;5006514;28;20041;-79
2022/06/26 04:26:25;;;;;;;5.15;4.60;;;19.10;99.70;;;;;;4995603;28;20058;-80
2022/06/26 04:28:50;;;;;;;5.93;4.65;;;19.20;99.20;;;;;;5013324;28;20025;-79
2022/06/26 04:31:16;;;;;;;5.32;4.32;;;19.30;99.10;;;;;;5007456;28;20080;-80
2022/06/26 04:33:43;;;;;;;6.30;5.07;;;19.40;99.10;;;;;;4993944;28;20117;-79
2022/06/26 04:36:08;;;;;;;3.63;3.13;;;19.50;98.70;;;;;;5023242;28;20033;-79
2022/06/26 04:38:34;;;;;;;5.82;4.90;;;19.70;98.70;;;;;;5000311;28;20039;-80
2022/06/26 04:41:31;;;;;;;5.97;3.88;;;19.80;98.00;;;;;;4997684;28;20052;-79
2022/06/26 04:43:45;;;;;;;7.75;5.85;;;20.00;97.90;;;;;;5005806;28;20572;-79
2022/06/26 04:46:11;;;;;;;5.65;4.05;;;20.20;97.20;;;;;;4990263;28;20030;-79
2022/06/26 04:48:36;;;;;;;5.55;4.65;;;20.30;97.10;;;;;;5008603;28;20034;-79
2022/06/26 04:51:02;;;;;;;6.10;4.70;;;20.40;97.00;;;;;;5010210;28;20060;-79
2022/06/26 04:53:27;;;;;;;5.18;4.47;;;20.50;96.60;;;;;;4997037;28;20022;-79
2022/06/26 04:55:53;;;;;;;5.38;4.13;;;20.60;96.60;;;;;;5005913;28;20035;-79
2022/06/26 04:58:18;;;;;;;4.97;3.65;;;20.70;96.10;;;;;;5006516;28;20042;-79
2022/06/26 05:00:44;;;;;;;3.55;3.25;;;20.80;95.60;;;;;;5033076;28;20046;-79
2022/06/26 05:03:09;;;;;;;6.65;4.90;;;20.90;95.80;;;;;;5012479;28;20030;-79
2022/06/26 05:05:35;;;;;;;5.65;4.47;;;20.90;95.90;;;;;;4995852;28;20074;-79
2022/06/26 05:08:00;;;;;;;6.50;5.28;;;21.00;95.70;;;;;;5008817;28;20037;-79
2022/06/26 05:10:26;;;;;;;5.45;4.72;;;21.00;95.60;;;;;;4994787;28;20486;-79
2022/06/26 05:12:51;;;;;;;4.57;3.88;;;20.90;95.00;;;;;;5012352;28;20537;-79
2022/06/26 05:15:19;;;;;;;8.73;6.18;;;21.00;95.00;;;;;;5008139;28;20029;-80
2022/06/26 05:17:44;;;;;;;7.20;4.25;;;20.80;95.80;;;;;;4995613;28;20058;-79
2022/06/26 05:20:10;;;;;;;5.07;4.57;;;20.70;95.60;;;;;;5000498;28;20113;-78
2022/06/26 05:22:36;;;;;;;3.92;3.53;;;20.70;95.20;;;;;;5008126;28;20042;-79
2022/06/26 05:25:01;;;;;;;5.18;2.85;;;20.60;96.00;;;;;;5022552;28;20481;-80
2022/06/26 05:27:27;;;;;;;4.35;3.58;;;20.60;95.90;;;;;;5005832;28;20397;-79
2022/06/26 05:29:53;;;;;;;5.60;3.95;;;20.50;95.80;;;;;;5005670;28;20121;-79
2022/06/26 05:32:18;;;;;;;4.30;3.42;;;20.50;96.20;;;;;;5002800;28;20035;-79
2022/06/26 05:34:44;;;;;;;5.35;3.92;;;20.50;96.10;;;;;;5001886;28;20030;-79
2022/06/26 05:37:09;;;;;;;4.47;3.28;;;20.40;96.40;;;;;;5007903;28;20038;-79
2022/06/26 05:39:35;;;;;;;3.67;3.35;;;20.40;96.10;;;;;;5008281;28;20434;-79
2022/06/26 05:42:00;;;;;;;3.75;3.28;;;20.40;96.20;;;;;;4992969;28;20112;-79
2022/06/26 05:44:26;;;;;;;4.00;3.30;;;20.40;96.10;;;;;;5023995;28;20056;-79
2022/06/26 05:46:51;;;;;;;6.47;4.05;;;20.40;95.90;;;;;;4994019;28;20030;-79
2022/06/26 05:49:17;;;;;;;7.18;4.40;;;20.40;95.70;;;;;;5001925;28;20557;-80
2022/06/26 05:51:42;;;;;;;3.55;3.03;;;20.40;96.20;;;;;;4989554;28;20437;-79
2022/06/26 05:54:08;;;;;;;5.38;3.75;;;20.40;95.80;;;;;;5004158;28;20397;-79
2022/06/26 05:56:33;;;;;;;5.68;4.03;;;20.40;96.30;;;;;;5020013;28;20497;-79
2022/06/26 05:58:59;;;;;;;5.32;4.53;;;20.40;96.30;;;;;;5010271;28;20396;-79
2022/06/26 06:01:24;;;;;;;7.18;3.97;;;20.40;96.40;;;;;;4994439;28;20385;-79
2022/06/26 06:03:50;;;;;;;6.57;3.78;;;20.50;96.50;;;;;;5015633;28;20037;-80
2022/06/26 06:06:16;;;;;;;4.72;3.58;;;20.50;96.30;;;;;;5010550;28;20034;-79
2022/06/26 06:08:42;;;;;;;10.27;4.63;;;20.60;96.30;;;;;;4994343;28;20076;-79
2022/06/26 06:11:07;;;;;;;6.07;3.65;;;20.60;96.30;;;;;;5005859;28;20062;-80
2022/06/26 06:13:33;;;;;;;6.20;5.38;;;20.70;96.00;;;;;;4995463;28;20033;-79
2022/06/26 06:16:00;;;;;;;6.22;4.55;;;20.80;95.90;;;;;;5005808;28;20030;-79
2022/06/26 06:18:25;;;;;;;4.43;3.92;;;20.90;95.90;;;;;;5021194;28;20227;-79
2022/06/26 06:20:51;;;;;;;3.67;3.33;;;21.10;95.80;;;;;;4993218;28;20034;-79
2022/06/26 06:23:16;;;;;;;5.95;4.43;;;21.20;96.00;;;;;;4990338;28;20116;-80
2022/06/26 06:25:42;;;;;;;4.50;4.10;;;21.30;95.50;;;;;;4991782;28;20525;-80
2022/06/26 06:28:08;;;;;;;7.35;5.00;;;21.30;95.40;;;;;;5006928;28;20033;-79
2022/06/26 06:30:33;;;;;;;6.35;5.72;;;21.30;95.40;;;;;;5010785;28;20029;-79
2022/06/26 06:32:59;;;;;;;4.07;3.67;;;21.40;95.40;;;;;;4990640;28;20398;-79
2022/06/26 06:35:24;;;;;;;6.50;4.25;;;21.50;95.00;;;;;;4991761;28;20025;-79
2022/06/26 06:37:50;;;;;;;4.53;4.13;;;21.70;94.70;;;;;;5018924;28;20096;-78
2022/06/26 06:40:16;;;;;;;4.95;4.47;;;21.80;95.00;;;;;;5020028;28;20026;-78
2022/06/26 06:42:42;;;;;;;6.50;4.50;;;22.00;94.80;;;;;;4992089;28;20525;-78
2022/06/26 06:45:08;;;;;;;4.72;3.90;;;22.10;94.40;;;;;;4994004;28;20433;-78
2022/06/26 06:47:34;;;;;;;3.85;3.13;;;22.20;93.60;;;;;;5037721;28;20479;-78
2022/06/26 06:49:59;;;;;;;3.78;2.90;;;22.30;94.30;;;;;;5005198;28;20045;-78
2022/06/26 06:52:27;;;;;;;4.13;2.63;;;22.30;93.50;;;;;;4994854;28;20033;-78
2022/06/26 06:54:52;;;;;;;3.85;2.70;;;22.20;93.10;;;;;;5008836;28;20097;-79
2022/06/26 06:57:18;;;;;;;3.78;2.40;;;22.20;92.80;;;;;;5024367;28;20041;-78
2022/06/26 06:59:44;;;;;;;3.17;2.10;;;22.40;92.70;;;;;;5025107;28;20046;-79
2022/06/26 07:02:09;;;;;;;3.03;2.13;;;22.70;93.10;;;;;;5027200;28;20069;-78
2022/06/26 07:04:35;;;;;;;3.05;2.10;;;22.90;92.60;;;;;;4989610;28;20479;-79
2022/06/26 07:07:01;;;;;;;4.80;2.65;;;23.30;92.70;;;;;;5016947;28;20029;-78
2022/06/26 07:09:27;;;;;;;2.97;2.50;;;23.40;91.10;;;;;;5012992;28;20037;-78
2022/06/26 07:11:52;;;;;;;2.63;2.05;;;23.60;92.00;;;;;;5031029;28;20489;-78
2022/06/26 07:14:18;;;;;;;3.15;2.15;;;24.00;91.40;;;;;;5035010;28;20051;-78
2022/06/26 07:16:43;;;;;;;4.78;2.45;;;24.10;89.30;;;;;;5031647;28;20052;-78
2022/06/26 07:19:09;;;;;;;5.38;2.20;;;24.50;90.80;;;;;;5015939;28;20029;-78
2022/06/26 07:21:35;;;;;;;2.85;2.03;;;24.90;89.90;;;;;;5018132;28;20035;-78
2022/06/26 07:24:00;;;;;;;3.38;2.05;;;25.20;87.10;;;;;;5020034;28;20477;-78
2022/06/26 07:26:26;;;;;;;3.00;2.22;;;25.40;86.40;;;;;;5016208;28;20057;-78
2022/06/26 07:28:51;;;;;;;2.35;2.15;;;25.50;84.10;;;;;;5027119;28;20037;-78
2022/06/26 07:31:17;;;;;;;3.60;2.25;;;25.70;85.30;;;;;;5015749;28;20491;-78
2022/06/26 07:36:27;;;;;;;3.55;1.70;;;26.10;83.80;;;;;;5033000;28;20033;-77
2022/06/26 07:38:54;;;;;;;3.95;1.98;;;26.10;82.00;;;;;;5007496;28;20042;-77
2022/06/26 07:41:20;;;;;;;1.92;1.50;;;26.30;81.30;;;;;;5007358;28;20033;-78
2022/06/26 07:43:46;;;;;;;3.65;1.75;;;26.30;80.70;;;;;;4998510;28;20092;-78
2022/06/26 07:46:12;;;;;;;2.08;1.38;;;26.40;79.80;;;;;;4991908;28;20488;-78
2022/06/26 07:48:37;;;;;;;4.32;2.03;;;26.50;78.40;;;;;;5020594;28;20398;-78
2022/06/26 07:51:03;;;;;;;2.75;1.88;;;26.50;77.60;;;;;;5027492;28;20037;-77
2022/06/26 07:53:28;;;;;;;4.60;1.80;;;26.60;77.20;;;;;;5010005;28;20033;-78
2022/06/26 07:55:54;;;;;;;1.60;1.50;;;26.70;76.20;;;;;;5011438;28;20586;-78
2022/06/26 07:58:20;;;;;;;2.35;1.52;;;26.70;75.40;;;;;;5019788;28;20065;-77
2022/06/26 08:00:45;;;;;;;2.83;1.90;;;26.70;75.50;;;;;;4991894;28;20032;-77
2022/06/26 08:03:13;;;;;;;3.25;1.90;;;26.30;74.30;;;;;;5023768;28;20033;-77
2022/06/26 08:05:39;;;;;;;1.77;1.50;;;26.60;75.70;;;;;;5007360;28;20064;-77
2022/06/26 08:08:05;;;;;;;3.55;2.13;;;26.50;76.30;;;;;;5044930;28;20068;-77
2022/06/26 08:10:30;;;;;;;2.30;1.70;;;26.80;74.90;;;;;;4991327;28;20036;-77
2022/06/26 08:12:59;;;;;;;2.92;1.63;;;27.10;73.70;;;;;;5009823;28;20040;-77
2022/06/26 08:15:26;;;;;;;3.15;2.05;;;27.40;70.60;;;;;;5009670;28;20560;-78
2022/06/26 08:17:51;;;;;;;2.92;2.40;;;27.40;74.10;;;;;;4995696;28;20030;-77
2022/06/26 08:20:17;;;;;;;3.22;2.10;;;28.10;72.50;;;;;;4991518;28;20037;-78
2022/06/26 08:22:42;;;;;;;3.22;2.00;;;28.50;70.10;;;;;;5023342;28;20072;-77
2022/06/26 08:25:08;;;;;;;2.47;1.98;;;28.70;67.90;;;;;;4993601;28;20045;-77
2022/06/26 08:27:34;;;;;;;3.65;2.15;;;29.00;69.00;;;;;;5006106;28;20120;-77
2022/06/26 08:29:59;;;;;;;5.43;2.13;;;28.90;68.70;;;;;;4996341;28;20029;-78
2022/06/26 08:32:25;;;;;;;2.17;1.98;;;28.80;66.00;;;;;;5011519;28;20032;-77
2022/06/26 08:34:50;;;;;;;3.05;1.85;;;28.80;65.80;;;;;;5013458;28;20029;-77
2022/06/26 08:37:16;;;;;;;2.85;1.58;;;28.70;66.70;;;;;;4985060;28;20459;-78
2022/06/26 08:39:43;;;;;;;3.50;2.17;;;28.60;67.60;;;;;;5009921;28;20038;-78
2022/06/26 08:42:08;;;;;;;2.83;1.77;;;29.00;67.00;;;;;;4992624;28;20033;-78
2022/06/26 08:44:34;;;;;;;4.40;1.80;;;28.80;65.30;;;;;;5008477;28;20031;-78
2022/06/26 08:47:00;;;;;;;4.15;1.63;;;29.40;65.90;;;;;;4989063;28;20041;-77
2022/06/26 08:49:25;;;;;;;2.75;1.50;;;29.90;64.70;;;;;;5007017;28;20381;-78
2022/06/26 08:51:52;;;;;;;3.38;1.30;;;29.90;62.80;;;;;;4993886;28;20112;-77
2022/06/26 08:54:18;;;;;;;2.97;1.35;;;30.00;63.30;;;;;;4994566;28;20116;-78
2022/06/26 08:56:47;;;;;;;2.40;1.30;;;30.20;61.90;;;;;;5020351;28;20137;-77
2022/06/26 08:59:14;;;;;;;1.25;0.90;;;30.10;61.30;;;;;;5008178;28;20040;-77
2022/06/26 09:01:40;;;;;;;1.50;1.25;;;30.10;62.30;;;;;;4985053;28;20173;-77
2022/06/26 09:04:05;;;;;;;2.65;1.27;;;29.40;59.80;;;;;;5007222;28;20061;-77
2022/06/26 09:06:35;;;;;;;2.35;1.05;;;29.30;62.80;;;;;;4996714;28;20026;-77
2022/06/26 09:09:00;;;;;;;0.75;0.75;;;29.60;60.70;;;;;;5014339;28;20029;-77
2022/06/26 09:11:26;;;;;;;1.83;0.80;;;29.50;60.30;;;;;;5005211;28;20034;-77
2022/06/26 09:13:53;;;;;;;1.77;1.17;;;29.60;60.70;;;;;;5018149;28;20458;-78
2022/06/26 09:16:29;;;;;;;1.60;0.80;;;29.30;59.90;;;;;;5029703;28;20041;-78
2022/06/26 09:18:54;;;;;;;1.25;0.80;;;28.90;62.20;;;;;;5040336;28;20045;-78
2022/06/26 09:21:25;;;;;;;1.65;1.02;;;29.90;59.70;;;;;;5010143;28;20026;-78
2022/06/26 09:23:53;;;;;;;1.38;0.82;;;29.70;59.40;;;;;;4993000;28;20029;-80
2022/06/26 09:26:18;;;;;;;1.35;0.90;;;29.70;57.70;;;;;;5007217;28;20410;-77
2022/06/26 09:28:44;;;;;;;1.80;1.00;;;29.00;60.00;;;;;;5001191;28;20039;-78
2022/06/26 09:31:12;;;;;;;0.82;0.70;;;30.30;59.00;;;;;;4989491;28;20041;-79
2022/06/26 09:33:39;;;;;;;3.95;1.30;;;30.70;57.60;;;;;;5005002;28;20092;-78
2022/06/26 09:36:05;;;;;;;1.48;0.95;;;31.00;57.30;;;;;;4993317;28;20644;-79
2022/06/26 09:38:33;;;;;;;1.10;0.77;;;31.30;56.80;;;;;;5016798;28;20163;-79
2022/06/26 09:40:59;;;;;;;1.40;0.90;;;31.70;56.30;;;;;;5000661;28;20486;-78
2022/06/26 09:43:36;;;;;;;2.22;1.13;;;31.70;55.30;;;;;;5004833;28;20503;-80
2022/06/26 09:46:03;;;;;;;1.83;1.00;;;31.80;55.10;;;;;;5021407;28;20379;-78
2022/06/26 09:48:28;;;;;;;2.67;1.48;;;31.60;56.10;;;;;;4979808;28;20505;-78
2022/06/26 09:50:54;;;;;;;1.10;0.82;;;31.80;55.30;;;;;;4996386;28;20034;-78
2022/06/26 09:53:22;;;;;;;1.52;1.10;;;31.70;55.00;;;;;;5007979;28;20038;-78
2022/06/26 09:55:47;;;;;;;5.10;1.15;;;31.90;54.40;;;;;;5005866;28;20478;-78
2022/06/26 09:58:14;;;;;;;1.00;0.90;;;32.00;54.00;;;;;;5010096;28;20046;-78
2022/06/26 10:00:39;;;;;;;1.33;0.90;;;31.40;54.20;;;;;;4989066;28;20034;-79
2022/06/26 10:08:33;;;;;;;4.35;0.90;;;32.60;54.30;;;;;;5013859;28;20068;-79
2022/06/26 10:10:59;;;;;;;1.33;1.20;;;32.60;53.80;;;;;;4993855;28;20030;-78
2022/06/26 10:13:25;;;;;;;1.45;0.90;;;32.60;53.20;;;;;;4991117;28;20493;-78
2022/06/26 10:16:09;;;;;;;1.38;1.05;;;32.30;54.10;;;;;;4987945;28;20034;-79
2022/06/26 10:18:53;;;;;;;3.47;1.20;;;32.60;53.60;;;;;;5004140;28;20033;-78
2022/06/26 10:21:19;;;;;;;1.33;0.73;;;32.80;53.20;;;;;;5004426;28;20041;-78
2022/06/26 10:23:44;;;;;;;2.05;0.93;;;32.70;52.90;;;;;;4986335;28;20088;-78
2022/06/26 10:26:17;;;;;;;1.75;0.88;;;32.30;53.70;;;;;;5010465;28;20104;-80
2022/06/26 10:29:00;;;;;;;3.00;1.40;;;32.40;51.80;;;;;;5012619;28;20285;-79
2022/06/26 10:31:29;;;;;;;1.38;0.90;;;32.40;53.50;;;;;;5012127;28;20033;-78
2022/06/26 10:33:55;;;;;;;1.63;1.10;;;31.90;52.30;;;;;;4989500;28;20393;-78
2022/06/26 10:36:24;;;;;;;3.15;0.93;;;32.50;53.20;;;;;;5031398;28;20030;-78
2022/06/26 10:38:51;;;;;;;1.30;0.98;;;32.80;52.20;;;;;;5025324;28;20108;-77
2022/06/26 10:44:15;;;;;;;2.13;1.03;;;32.70;51.40;;;;;;5004894;28;20062;-77
2022/06/26 10:46:48;;;;;;;1.98;0.98;;;32.50;51.20;;;;;;5017900;28;20141;-78
2022/06/26 10:49:14;;;;;;;2.35;0.80;;;32.30;51.40;;;;;;4987030;28;20048;-78
2022/06/26 10:51:41;;;;;;;1.75;1.00;;;32.20;50.90;;;;;;5006551;28;20030;-78
2022/06/26 10:54:25;;;;;;;1.15;0.88;;;32.10;50.40;;;;;;4994071;28;20425;-78
2022/06/26 10:57:03;;;;;;;3.55;1.30;;;32.00;50.50;;;;;;5033199;28;20554;-78
2022/06/26 10:59:31;;;;;;;1.30;0.85;;;31.80;50.70;;;;;;5005910;28;20309;-78
2022/06/26 11:01:56;;;;;;;2.80;0.93;;;31.70;50.60;;;;;;4992318;28;20036;-78
2022/06/26 11:04:22;;;;;;;3.50;1.10;;;31.60;51.30;;;;;;5015865;28;20029;-78
2022/06/26 11:06:48;;;;;;;1.40;0.90;;;31.70;50.80;;;;;;4990690;28;20725;-78
2022/06/26 11:09:15;;;;;;;4.20;0.88;;;31.80;50.70;;;;;;4988285;28;20406;-78
2022/06/26 11:11:41;;;;;;;1.52;1.10;;;31.80;50.70;;;;;;5008438;28;20379;-78
2022/06/26 11:14:07;;;;;;;1.52;1.30;;;31.90;51.10;;;;;;5010206;28;20034;-78
2022/06/26 11:16:43;;;;;;;1.73;0.90;;;31.90;50.80;;;;;;5009774;28;20120;-78
2022/06/26 11:19:21;;;;;;;1.95;1.20;;;31.90;51.00;;;;;;5018893;28;20037;-78
2022/06/26 11:21:47;;;;;;;2.55;1.10;;;31.90;50.80;;;;;;5010036;28;20525;-78
2022/06/26 11:24:12;;;;;;;1.08;0.82;;;32.00;51.50;;;;;;4995929;28;20085;-79
2022/06/26 11:26:38;;;;;;;3.03;1.20;;;32.10;50.40;;;;;;4994558;28;20505;-79
2022/06/26 11:29:04;;;;;;;2.08;1.05;;;32.20;49.80;;;;;;5004300;28;20069;-79
2022/06/26 11:31:31;;;;;;;2.50;1.33;;;32.30;49.80;;;;;;4998782;28;20527;-79
2022/06/26 11:34:10;;;;;;;1.52;1.00;;;32.40;50.20;;;;;;5006127;28;20485;-79
2022/06/26 11:36:35;;;;;;;3.00;0.90;;;32.40;49.90;;;;;;4989170;28;20096;-79
2022/06/26 11:39:01;;;;;;;1.17;1.08;;;32.40;51.20;;;;;;5021694;28;20437;-79
2022/06/26 11:41:27;;;;;;;3.60;0.80;;;32.90;50.70;;;;;;4986519;28;20026;-79
2022/06/26 11:43:55;;;;;;;1.10;0.90;;;33.50;49.80;;;;;;4999979;28;20026;-79
2022/06/26 11:46:21;;;;;;;2.78;1.30;;;33.70;48.40;;;;;;5007785;28;20040;-78
2022/06/26 11:48:49;;;;;;;2.78;1.50;;;33.90;47.60;;;;;;5003539;28;20034;-79
2022/06/26 11:51:16;;;;;;;2.33;1.70;;;33.90;46.40;;;;;;4986349;28;20042;-79
2022/06/26 11:53:46;;;;;;;2.42;1.25;;;34.20;46.00;;;;;;5018897;28;20027;-78
2022/06/26 11:56:17;;;;;;;3.30;1.42;;;33.90;47.90;;;;;;5013667;28;20405;-79
2022/06/26 11:58:46;;;;;;;2.00;1.25;;;33.60;48.50;;;;;;5005799;28;20564;-78
2022/06/26 12:01:12;;;;;;;1.50;1.17;;;33.40;47.10;;;;;;5005095;28;20490;-79
2022/06/26 12:03:46;;;;;;;0.80;0.80;;;33.80;48.10;;;;;;5023718;28;20025;-78
2022/06/26 12:06:12;;;;;;;2.45;1.10;;;34.10;47.30;;;;;;5013807;28;20393;-78
2022/06/26 12:08:38;;;;;;;1.92;1.10;;;34.10;46.30;;;;;;4988294;28;20522;-79
2022/06/26 12:11:03;;;;;;;2.42;1.30;;;34.10;45.20;;;;;;5009996;28;20045;-77
2022/06/26 12:13:31;;;;;;;1.63;0.98;;;33.80;45.60;;;;;;4990621;28;20563;-77
2022/06/26 12:16:08;;;;;;;1.35;1.05;;;33.70;46.80;;;;;;4990125;28;20394;-78
2022/06/26 12:18:39;;;;;;;2.13;0.90;;;33.60;47.00;;;;;;4975482;28;20120;-77
2022/06/26 12:21:21;;;;;;;3.42;1.02;;;33.60;46.80;;;;;;5000304;28;20108;-77
2022/06/26 12:23:48;;;;;;;2.22;0.95;;;33.60;46.10;;;;;;5006120;28;20032;-79
2022/06/26 12:26:17;;;;;;;0.90;0.90;;;33.60;45.90;;;;;;4984914;28;20540;-78
2022/06/26 12:28:58;;;;;;;1.45;1.10;;;33.40;45.90;;;;;;5015929;28;20037;-78
2022/06/26 12:31:24;;;;;;;1.85;1.10;;;33.10;46.60;;;;;;5015065;28;20034;-79
2022/06/26 12:33:49;;;;;;;1.38;1.20;;;32.80;46.70;;;;;;4987136;28;20029;-79
2022/06/26 12:36:15;;;;;;;3.17;1.20;;;32.60;47.00;;;;;;4994766;28;21654;-79
2022/06/26 12:38:41;;;;;;;1.80;1.00;;;32.30;47.40;;;;;;5007868;28;20088;-78
2022/06/26 12:41:16;;;;;;;2.00;1.17;;;32.00;48.90;;;;;;5011529;28;20073;-78
2022/06/26 12:43:49;;;;;;;1.83;1.05;;;31.60;49.40;;;;;;4996531;28;20149;-79
2022/06/26 12:46:14;;;;;;;1.50;1.20;;;31.30;50.40;;;;;;5009980;28;20091;-79
2022/06/26 12:48:40;;;;;;;3.50;1.42;;;31.00;51.40;;;;;;4989434;28;20341;-79
2022/06/26 12:51:05;;;;;;;1.52;1.10;;;30.70;52.10;;;;;;5022741;28;20037;-80
2022/06/26 12:53:31;;;;;;;1.85;1.25;;;30.50;53.10;;;;;;4994431;28;20029;-80
2022/06/26 12:55:57;;;;;;;1.20;1.10;;;30.10;54.50;;;;;;5004714;28;20096;-79
2022/06/26 12:58:23;;;;;;;2.28;1.30;;;29.80;56.50;;;;;;4996018;28;20037;-79
2022/06/26 13:00:49;;;;;;;1.48;1.30;;;29.40;57.90;;;;;;5011204;28;20551;-80